Time;durP1;ratioP1;P1;durP2;ratioP2;P2;SDS_P1;SDS_P2;PMS_P1;PMS_P2;Temp;Humidity;BMP_temperature;BMP_pressure;BME280_temperature;BME280_humidity;BME280_pressure;Samples;Min_cycle;Max_cycle;Signal;HPM_P1;HPM_P2
2021/03/10 00:01:07;;;;;;;22.83;16.90;;;6.10;77.20;;;;;;5049066;28;20214;-83
2021/03/10 00:03:33;;;;;;;23.65;18.17;;;5.80;76.90;;;;;;5049380;28;20211;-82
2021/03/10 00:05:59;;;;;;;23.63;18.10;;;5.80;78.00;;;;;;5044242;28;20247;-82
2021/03/10 00:08:27;;;;;;;19.65;16.30;;;5.50;77.70;;;;;;5039372;28;20689;-82
2021/03/10 00:10:53;;;;;;;26.98;19.27;;;5.50;78.20;;;;;;5033506;28;20196;-82
2021/03/10 00:13:19;;;;;;;20.38;17.13;;;5.30;78.30;;;;;;5050065;28;20204;-82
2021/03/10 00:15:46;;;;;;;25.17;18.27;;;5.20;79.40;;;;;;5036879;28;20271;-82
2021/03/10 00:18:12;;;;;;;21.60;16.40;;;5.10;80.00;;;;;;5032119;28;20254;-82
2021/03/10 00:20:39;;;;;;;26.98;17.30;;;4.80;81.40;;;;;;5040037;28;20230;-82
2021/03/10 00:23:05;;;;;;;24.27;19.48;;;5.00;82.30;;;;;;5043401;28;20262;-82
2021/03/10 00:25:32;;;;;;;25.75;19.15;;;4.90;82.20;;;;;;5032219;28;20243;-82
2021/03/10 00:27:59;;;;;;;24.23;17.98;;;4.70;83.10;;;;;;5049985;28;20204;-82
2021/03/10 00:30:26;;;;;;;28.38;18.65;;;4.80;83.70;;;;;;5039453;28;20630;-82
2021/03/10 00:32:52;;;;;;;26.80;19.27;;;4.60;84.20;;;;;;5030131;28;20211;-82
2021/03/10 00:35:19;;;;;;;29.67;20.08;;;4.50;86.10;;;;;;5038003;28;20568;-82
2021/03/10 00:37:46;;;;;;;28.75;19.38;;;4.40;87.90;;;;;;5038355;28;20624;-81
2021/03/10 00:40:12;;;;;;;26.75;20.80;;;4.50;88.60;;;;;;5044324;28;20200;-82
2021/03/10 00:42:40;;;;;;;25.92;18.23;;;4.70;89.60;;;;;;5045551;28;20215;-82
2021/03/10 00:45:07;;;;;;;27.30;19.05;;;4.60;88.50;;;;;;5049919;28;20681;-82
2021/03/10 00:47:34;;;;;;;31.98;20.52;;;4.60;89.10;;;;;;5036049;28;20197;-82
2021/03/10 00:50:00;;;;;;;30.45;21.38;;;4.50;90.00;;;;;;5032129;28;20205;-82
2021/03/10 00:52:27;;;;;;;27.70;20.67;;;4.70;90.20;;;;;;5036967;28;20851;-82
2021/03/10 00:54:53;;;;;;;27.48;18.77;;;4.90;90.10;;;;;;5044719;28;20212;-81
2021/03/10 00:57:19;;;;;;;26.92;17.95;;;4.80;89.60;;;;;;5029959;28;20219;-82
2021/03/10 00:59:47;;;;;;;31.60;19.60;;;4.70;90.00;;;;;;5046642;28;20273;-81
2021/03/10 01:02:13;;;;;;;26.67;18.17;;;4.60;90.30;;;;;;5049633;28;20212;-82
2021/03/10 01:04:40;;;;;;;28.35;20.50;;;4.60;90.60;;;;;;5047941;28;20286;-82
2021/03/10 01:07:06;;;;;;;31.95;19.73;;;4.90;90.90;;;;;;5038059;28;20216;-82
2021/03/10 01:09:32;;;;;;;34.60;19.13;;;5.10;90.60;;;;;;5054121;28;20562;-82
2021/03/10 01:11:59;;;;;;;31.98;20.10;;;5.00;90.20;;;;;;5051037;28;20207;-82
2021/03/10 01:14:25;;;;;;;31.45;21.15;;;5.20;90.20;;;;;;5052151;28;20200;-82
2021/03/10 01:16:53;;;;;;;29.67;20.65;;;5.20;90.40;;;;;;5033950;28;20227;-82
2021/03/10 01:19:19;;;;;;;26.52;19.23;;;5.20;89.80;;;;;;5035361;28;20204;-82
2021/03/10 01:21:45;;;;;;;32.67;21.80;;;5.30;89.60;;;;;;5051735;28;20219;-81
2021/03/10 01:24:12;;;;;;;27.27;19.65;;;5.30;89.30;;;;;;5033192;28;20208;-82
2021/03/10 01:26:38;;;;;;;30.63;19.80;;;5.30;89.20;;;;;;5048531;28;20242;-82
2021/03/10 01:29:05;;;;;;;26.10;19.88;;;5.50;89.30;;;;;;5033499;28;20205;-82
2021/03/10 01:31:31;;;;;;;28.45;20.35;;;5.50;88.60;;;;;;5052557;28;20204;-82
2021/03/10 01:33:58;;;;;;;30.92;22.10;;;5.70;88.20;;;;;;5049393;28;20204;-82
2021/03/10 01:36:25;;;;;;;31.23;22.70;;;5.70;87.30;;;;;;5045916;28;20199;-82
2021/03/10 01:38:51;;;;;;;31.42;20.98;;;5.60;87.30;;;;;;5052485;28;20222;-82
2021/03/10 01:41:18;;;;;;;28.83;20.38;;;5.50;87.50;;;;;;5052113;28;20260;-83
2021/03/10 01:43:44;;;;;;;27.73;20.35;;;5.60;87.50;;;;;;5041266;28;20259;-82
2021/03/10 01:46:11;;;;;;;29.27;21.40;;;5.40;86.90;;;;;;5047212;28;20246;-82
2021/03/10 01:48:38;;;;;;;30.38;21.58;;;5.50;87.20;;;;;;5033463;28;20543;-82
2021/03/10 01:51:06;;;;;;;30.85;21.38;;;5.40;86.50;;;;;;5047587;28;20226;-82
2021/03/10 01:53:33;;;;;;;29.75;20.42;;;5.20;86.40;;;;;;5052489;28;20621;-82
2021/03/10 01:56:01;;;;;;;32.92;21.85;;;5.10;86.80;;;;;;5045097;28;20551;-82
2021/03/10 01:58:28;;;;;;;28.35;20.00;;;4.80;87.60;;;;;;5043475;28;20575;-82
2021/03/10 02:00:54;;;;;;;35.10;21.75;;;4.60;88.40;;;;;;5034185;28;20204;-82
2021/03/10 02:03:23;;;;;;;31.85;21.60;;;4.60;88.50;;;;;;5046445;28;20531;-82
2021/03/10 02:05:54;;;;;;;28.13;20.50;;;4.40;89.20;;;;;;5039789;28;20749;-82
2021/03/10 02:08:37;;;;;;;32.13;20.25;;;4.40;90.10;;;;;;5034349;28;20201;-82
2021/03/10 02:11:25;;;;;;;30.75;20.40;;;4.50;89.80;;;;;;5047017;28;21001;-82
2021/03/10 02:14:09;;;;;;;32.13;22.17;;;4.30;89.20;;;;;;5038276;28;20208;-82
2021/03/10 02:16:49;;;;;;;34.05;20.75;;;4.20;89.80;;;;;;5051134;28;20270;-82
2021/03/10 02:19:40;;;;;;;29.15;21.70;;;4.20;90.00;;;;;;5054323;28;20536;-82
2021/03/10 02:22:23;;;;;;;33.63;21.10;;;4.00;90.50;;;;;;5033072;28;20208;-82
2021/03/10 02:25:02;;;;;;;32.83;22.58;;;4.20;91.10;;;;;;5055550;28;20200;-82
2021/03/10 02:27:42;;;;;;;29.63;21.55;;;4.20;90.80;;;;;;5039094;28;20224;-82
2021/03/10 02:30:15;;;;;;;35.83;21.50;;;4.10;90.70;;;;;;5033326;28;20200;-83
2021/03/10 02:32:47;;;;;;;29.20;22.25;;;4.10;91.10;;;;;;5032237;28;20251;-82
2021/03/10 02:35:15;;;;;;;34.80;24.42;;;4.40;91.00;;;;;;5040037;28;20196;-83
2021/03/10 02:37:46;;;;;;;31.30;21.58;;;4.50;90.70;;;;;;5039646;28;20207;-82
2021/03/10 02:40:15;;;;;;;31.17;21.75;;;4.50;90.40;;;;;;5042600;28;20208;-82
2021/03/10 02:42:45;;;;;;;25.40;19.42;;;4.80;90.20;;;;;;5051861;28;20208;-82
2021/03/10 02:45:13;;;;;;;31.50;21.70;;;4.80;89.20;;;;;;5041681;28;20458;-82
2021/03/10 02:47:41;;;;;;;32.75;21.95;;;4.60;89.30;;;;;;5040328;28;20225;-82
2021/03/10 02:50:12;;;;;;;34.05;23.63;;;4.50;90.20;;;;;;5033834;28;20639;-82
2021/03/10 02:52:40;;;;;;;32.63;21.20;;;4.60;90.40;;;;;;5052208;28;20196;-82
2021/03/10 02:55:09;;;;;;;28.27;21.38;;;4.60;90.60;;;;;;5053629;28;20200;-82
2021/03/10 02:57:37;;;;;;;32.80;22.42;;;4.70;90.40;;;;;;5032415;28;20188;-82
2021/03/10 03:00:08;;;;;;;31.30;21.77;;;4.70;90.30;;;;;;5031907;28;20197;-82
2021/03/10 03:02:35;;;;;;;29.50;21.35;;;4.80;90.30;;;;;;5031870;28;20647;-81
2021/03/10 03:05:03;;;;;;;35.13;23.05;;;4.80;90.30;;;;;;5037981;28;20197;-82
2021/03/10 03:07:32;;;;;;;33.40;23.83;;;4.80;90.20;;;;;;5050728;28;20260;-82
2021/03/10 03:10:05;;;;;;;33.13;23.60;;;4.80;90.30;;;;;;5039713;28;20197;-82
2021/03/10 03:12:33;;;;;;;33.30;22.73;;;5.00;90.50;;;;;;5037802;28;20283;-81
2021/03/10 03:15:05;;;;;;;31.80;22.40;;;5.10;90.20;;;;;;5051456;28;20250;-82
2021/03/10 03:17:36;;;;;;;33.33;24.15;;;5.10;90.00;;;;;;5034772;28;20197;-82
2021/03/10 03:20:05;;;;;;;35.00;25.10;;;5.10;89.70;;;;;;5039252;28;20201;-82
2021/03/10 03:22:34;;;;;;;30.60;22.27;;;5.00;89.80;;;;;;5032606;28;20289;-82
2021/03/10 03:25:00;;;;;;;35.63;25.48;;;4.90;90.00;;;;;;5035698;28;20211;-82
2021/03/10 03:27:28;;;;;;;33.45;23.55;;;5.00;90.20;;;;;;5040827;28;20216;-81
2021/03/10 03:29:56;;;;;;;30.85;23.58;;;5.00;90.50;;;;;;5064053;28;20192;-82
2021/03/10 03:32:26;;;;;;;38.90;23.95;;;5.10;90.20;;;;;;5051056;28;20197;-82
2021/03/10 03:34:52;;;;;;;33.90;23.25;;;5.10;90.00;;;;;;5044448;28;20260;-82
2021/03/10 03:37:19;;;;;;;40.20;24.40;;;5.10;89.80;;;;;;5048703;28;20564;-82
2021/03/10 03:39:46;;;;;;;35.88;23.17;;;5.00;89.40;;;;;;5048119;28;20201;-82
2021/03/10 03:42:12;;;;;;;35.47;24.92;;;5.00;89.80;;;;;;5051225;28;20212;-82
2021/03/10 03:44:39;;;;;;;34.35;22.30;;;5.00;89.80;;;;;;5039474;28;20203;-82
2021/03/10 03:47:06;;;;;;;36.63;22.55;;;4.90;90.10;;;;;;5042808;28;20220;-82
2021/03/10 03:49:33;;;;;;;33.35;23.35;;;5.00;90.10;;;;;;5033824;28;20212;-82
2021/03/10 03:52:00;;;;;;;40.20;25.40;;;5.00;90.00;;;;;;5051205;28;20218;-82
2021/03/10 03:54:26;;;;;;;40.88;24.40;;;5.10;89.60;;;;;;5048619;28;20204;-82
2021/03/10 03:56:53;;;;;;;35.22;23.10;;;5.10;89.00;;;;;;5048208;28;20662;-82
2021/03/10 03:59:19;;;;;;;34.25;24.83;;;5.00;88.90;;;;;;5031652;28;20201;-82
2021/03/10 04:01:45;;;;;;;37.47;24.45;;;5.00;89.10;;;;;;5050290;28;20254;-82
2021/03/10 04:04:12;;;;;;;35.22;24.55;;;5.00;89.00;;;;;;5048803;28;20203;-81
2021/03/10 04:06:45;;;;;;;37.20;24.73;;;5.00;89.00;;;;;;5032388;28;20217;-82
2021/03/10 04:09:12;;;;;;;33.42;23.48;;;4.90;89.10;;;;;;5031170;28;20810;-82
2021/03/10 04:11:39;;;;;;;37.05;25.10;;;4.90;89.20;;;;;;5031691;28;20583;-82
2021/03/10 04:14:05;;;;;;;38.28;24.00;;;4.90;89.80;;;;;;5031708;28;20267;-82
2021/03/10 04:16:33;;;;;;;36.70;24.10;;;4.90;89.50;;;;;;5031209;28;20205;-82
2021/03/10 04:18:59;;;;;;;35.35;23.95;;;5.00;89.20;;;;;;5050897;28;20258;-82
2021/03/10 04:21:25;;;;;;;40.53;23.85;;;5.10;88.80;;;;;;5033199;28;20213;-82
2021/03/10 04:23:53;;;;;;;38.47;24.38;;;5.10;89.40;;;;;;5031473;28;20205;-82
2021/03/10 04:26:20;;;;;;;32.83;22.35;;;5.00;88.60;;;;;;5029907;28;20223;-82
2021/03/10 04:28:47;;;;;;;35.63;24.38;;;5.00;88.60;;;;;;5061944;28;20225;-82
2021/03/10 04:31:13;;;;;;;39.30;24.80;;;4.70;88.90;;;;;;5051882;28;20704;-82
2021/03/10 04:33:40;;;;;;;36.92;23.85;;;4.90;89.70;;;;;;5050276;28;20200;-82
2021/03/10 04:36:07;;;;;;;38.63;26.90;;;4.80;89.30;;;;;;5047797;28;20779;-82
2021/03/10 04:38:34;;;;;;;35.70;25.25;;;4.90;89.80;;;;;;5051024;28;20610;-82
2021/03/10 04:41:01;;;;;;;38.28;25.48;;;4.90;89.60;;;;;;5049807;28;20196;-82
2021/03/10 04:43:28;;;;;;;34.05;25.13;;;4.80;89.90;;;;;;5053333;28;20377;-82
2021/03/10 04:45:54;;;;;;;34.85;25.15;;;4.70;89.10;;;;;;5039414;28;20271;-81
2021/03/10 04:48:21;;;;;;;36.83;24.85;;;4.50;89.40;;;;;;5039681;28;20215;-82
2021/03/10 04:50:48;;;;;;;37.72;23.40;;;4.40;90.00;;;;;;5048642;28;20210;-82
2021/03/10 04:53:14;;;;;;;38.30;24.48;;;4.40;90.00;;;;;;5044012;28;20209;-82
2021/03/10 04:55:41;;;;;;;40.00;24.45;;;4.40;90.00;;;;;;5038679;28;20211;-81
2021/03/10 04:58:08;;;;;;;35.58;24.20;;;4.20;90.30;;;;;;5054068;28;20192;-82
2021/03/10 05:00:35;;;;;;;30.73;22.42;;;4.30;90.20;;;;;;5044380;28;20663;-82
2021/03/10 05:03:01;;;;;;;36.72;24.17;;;4.20;90.10;;;;;;5037309;28;20204;-81
2021/03/10 05:05:28;;;;;;;37.42;25.00;;;4.30;90.00;;;;;;5046476;28;20654;-82
2021/03/10 05:07:54;;;;;;;34.67;24.70;;;4.30;89.40;;;;;;5054071;28;20223;-82
2021/03/10 05:10:20;;;;;;;40.63;24.17;;;4.20;89.20;;;;;;5043523;28;20220;-82
2021/03/10 05:12:47;;;;;;;41.90;26.63;;;4.20;90.00;;;;;;5034876;28;20204;-82
2021/03/10 05:15:15;;;;;;;33.97;22.17;;;4.30;90.20;;;;;;5046845;28;20682;-81
2021/03/10 05:17:41;;;;;;;37.80;24.80;;;4.40;90.10;;;;;;5034355;28;20201;-81
2021/03/10 05:20:09;;;;;;;32.88;24.35;;;4.40;90.10;;;;;;5045752;28;20228;-82
2021/03/10 05:22:36;;;;;;;38.42;25.75;;;4.50;90.20;;;;;;5045686;28;20212;-81
2021/03/10 05:25:03;;;;;;;34.75;24.10;;;4.60;90.20;;;;;;5046014;28;20243;-82
2021/03/10 05:27:31;;;;;;;43.50;26.13;;;4.70;90.10;;;;;;5043952;28;20562;-82
2021/03/10 05:29:58;;;;;;;44.45;27.23;;;4.80;90.00;;;;;;5060803;28;20200;-81
2021/03/10 05:32:25;;;;;;;41.65;25.88;;;5.00;89.60;;;;;;5040682;28;20197;-82
2021/03/10 05:34:51;;;;;;;40.78;26.13;;;5.00;89.30;;;;;;5047272;28;20204;-82
2021/03/10 05:37:18;;;;;;;41.92;26.83;;;5.10;88.90;;;;;;5054254;28;20188;-82
2021/03/10 05:39:45;;;;;;;43.60;26.60;;;5.10;88.80;;;;;;5043589;28;20258;-82
2021/03/10 05:42:11;;;;;;;44.67;27.60;;;5.10;88.60;;;;;;5035422;28;20213;-82
2021/03/10 05:44:38;;;;;;;38.78;26.67;;;5.20;88.60;;;;;;5053945;28;20246;-82
2021/03/10 05:47:06;;;;;;;42.00;26.10;;;5.20;88.80;;;;;;5038994;28;20220;-82
2021/03/10 05:49:33;;;;;;;37.53;25.23;;;5.10;88.60;;;;;;5034449;28;20655;-82
2021/03/10 05:52:03;;;;;;;45.10;26.40;;;5.10;88.90;;;;;;5053644;28;20191;-82
2021/03/10 05:54:31;;;;;;;41.25;26.00;;;5.20;88.70;;;;;;5043606;28;20212;-82
2021/03/10 05:57:01;;;;;;;34.05;24.70;;;5.30;88.50;;;;;;5059914;28;20669;-83
2021/03/10 05:59:28;;;;;;;42.92;27.45;;;5.30;88.20;;;;;;5056085;28;20279;-84
2021/03/10 06:01:55;;;;;;;37.72;25.40;;;5.20;87.90;;;;;;5060882;28;20218;-84
2021/03/10 06:04:23;;;;;;;38.95;26.08;;;5.30;88.00;;;;;;5051579;28;20290;-84
2021/03/10 06:06:50;;;;;;;41.92;26.58;;;5.30;88.00;;;;;;5048052;28;20736;-84
2021/03/10 06:09:19;;;;;;;39.83;26.75;;;5.30;88.10;;;;;;5035116;28;20192;-84
2021/03/10 06:11:56;;;;;;;40.65;28.10;;;5.30;88.40;;;;;;5050219;28;21371;-84
2021/03/10 06:14:22;;;;;;;41.50;26.60;;;5.40;88.60;;;;;;5033627;28;20208;-84
2021/03/10 06:16:59;;;;;;;47.35;28.05;;;5.40;88.20;;;;;;5051421;28;20730;-84
2021/03/10 06:19:26;;;;;;;40.30;25.38;;;5.40;88.10;;;;;;5051554;28;20196;-85
2021/03/10 06:21:53;;;;;;;38.67;25.20;;;5.40;88.90;;;;;;5044141;28;20204;-85
2021/03/10 06:24:19;;;;;;;37.25;25.23;;;5.20;88.50;;;;;;5034417;28;20216;-84
2021/03/10 06:26:54;;;;;;;38.50;25.33;;;5.20;89.30;;;;;;5036106;28;20227;-84
2021/03/10 06:29:21;;;;;;;33.58;22.50;;;5.20;89.70;;;;;;5032857;28;20658;-84
2021/03/10 06:31:48;;;;;;;34.10;23.83;;;5.20;89.50;;;;;;5050007;28;20227;-84
2021/03/10 06:34:15;;;;;;;40.05;25.20;;;5.10;89.90;;;;;;5032685;28;20205;-85
2021/03/10 06:36:44;;;;;;;35.63;23.60;;;5.20;90.00;;;;;;5032433;28;20207;-83
2021/03/10 06:39:13;;;;;;;37.45;24.80;;;5.20;89.90;;;;;;5052242;28;20234;-84
2021/03/10 06:41:41;;;;;;;40.25;26.38;;;5.20;89.80;;;;;;5043484;28;20611;-85
2021/03/10 06:44:18;;;;;;;35.45;24.80;;;5.10;90.20;;;;;;5050569;28;20200;-84
2021/03/10 06:46:54;;;;;;;34.75;23.00;;;5.20;90.20;;;;;;5034089;28;20573;-85
2021/03/10 06:49:21;;;;;;;38.20;24.33;;;5.30;90.10;;;;;;5035087;28;20200;-84
2021/03/10 06:51:52;;;;;;;37.55;23.00;;;5.50;89.70;;;;;;5052638;28;20658;-84
2021/03/10 06:54:20;;;;;;;35.08;24.63;;;5.60;88.90;;;;;;5029275;28;20286;-84
2021/03/10 06:56:59;;;;;;;38.35;25.15;;;5.70;88.70;;;;;;5040681;28;20196;-84
2021/03/10 06:59:25;;;;;;;37.65;25.08;;;5.80;88.20;;;;;;5046826;28;20234;-84
2021/03/10 07:01:52;;;;;;;38.70;25.80;;;5.70;87.40;;;;;;5051979;28;20204;-84
2021/03/10 07:04:19;;;;;;;40.20;25.73;;;5.90;88.10;;;;;;5033955;28;20207;-84
2021/03/10 07:06:45;;;;;;;37.78;25.30;;;5.90;87.40;;;;;;5047349;28;20216;-84
2021/03/10 07:09:13;;;;;;;40.55;24.27;;;6.00;87.50;;;;;;5054067;28;20236;-84
2021/03/10 07:11:42;;;;;;;33.53;22.75;;;6.20;86.80;;;;;;5062879;28;20195;-84
2021/03/10 07:14:11;;;;;;;34.15;22.73;;;6.10;86.20;;;;;;5055824;28;20192;-84
2021/03/10 07:16:37;;;;;;;36.15;23.30;;;6.10;86.40;;;;;;5048304;28;20268;-84
2021/03/10 07:19:06;;;;;;;33.60;23.67;;;6.20;86.40;;;;;;5031514;28;20307;-84
2021/03/10 07:21:36;;;;;;;34.38;22.25;;;6.20;86.20;;;;;;5045282;28;20203;-84
2021/03/10 07:24:03;;;;;;;35.40;23.05;;;6.20;86.30;;;;;;5042222;28;20209;-84
2021/03/10 07:26:31;;;;;;;40.53;23.75;;;6.20;86.40;;;;;;5032257;28;20221;-84
2021/03/10 07:29:03;;;;;;;36.67;24.33;;;6.10;85.80;;;;;;5066310;28;20207;-84
2021/03/10 07:31:30;;;;;;;33.67;23.65;;;6.00;85.70;;;;;;5057808;28;20202;-84
2021/03/10 07:33:57;;;;;;;35.05;24.52;;;5.80;85.50;;;;;;5043694;28;20197;-84
2021/03/10 07:36:37;;;;;;;33.97;23.77;;;5.60;87.20;;;;;;5030647;28;20647;-84
2021/03/10 07:39:06;;;;;;;31.63;23.35;;;5.70;87.70;;;;;;5048507;28;20204;-85
2021/03/10 07:41:34;;;;;;;34.67;23.27;;;5.70;87.80;;;;;;5042297;28;20263;-84
2021/03/10 07:44:03;;;;;;;36.35;23.30;;;6.00;87.70;;;;;;5036403;28;20326;-84
2021/03/10 07:46:31;;;;;;;36.38;24.30;;;6.00;86.80;;;;;;5051101;28;20227;-84
2021/03/10 07:48:59;;;;;;;33.90;22.80;;;5.90;86.70;;;;;;5034394;28;20200;-84
2021/03/10 07:51:27;;;;;;;34.50;23.58;;;6.00;87.20;;;;;;5037181;28;20199;-85
2021/03/10 07:53:54;;;;;;;32.72;21.60;;;6.00;87.30;;;;;;5050157;28;20204;-84
2021/03/10 07:56:26;;;;;;;38.97;25.02;;;5.90;87.20;;;;;;5042027;28;20196;-85
2021/03/10 07:58:53;;;;;;;38.25;23.08;;;6.00;87.70;;;;;;5043323;28;20201;-85
2021/03/10 08:01:20;;;;;;;37.17;21.90;;;5.90;87.00;;;;;;5031328;28;20736;-84
2021/03/10 08:03:47;;;;;;;35.35;24.02;;;5.70;86.70;;;;;;5047761;28;20290;-84
2021/03/10 08:06:14;;;;;;;33.75;23.70;;;6.00;87.50;;;;;;5042812;28;20693;-84
2021/03/10 08:08:42;;;;;;;36.38;25.35;;;6.20;87.10;;;;;;5030006;28;20254;-84
2021/03/10 08:11:11;;;;;;;34.80;24.75;;;6.00;86.50;;;;;;5040982;28;20207;-84
2021/03/10 08:13:38;;;;;;;38.60;25.33;;;6.10;86.80;;;;;;5048511;28;20204;-85
2021/03/10 08:16:06;;;;;;;35.08;23.40;;;6.10;87.10;;;;;;5039306;28;20266;-86
2021/03/10 08:18:34;;;;;;;34.63;23.25;;;6.10;85.70;;;;;;5030908;28;20212;-86
2021/03/10 08:21:08;;;;;;;34.90;23.80;;;6.20;86.30;;;;;;5038839;28;20196;-84
2021/03/10 08:23:35;;;;;;;32.90;22.75;;;6.20;85.10;;;;;;5050093;28;20239;-85
2021/03/10 08:26:03;;;;;;;34.80;23.23;;;6.00;85.90;;;;;;5047910;28;20204;-85
2021/03/10 08:28:34;;;;;;;32.70;23.02;;;6.10;86.30;;;;;;5063717;28;20203;-84
2021/03/10 08:31:02;;;;;;;33.03;23.65;;;6.20;85.40;;;;;;5060270;28;20259;-84
2021/03/10 08:33:28;;;;;;;32.53;22.30;;;6.40;85.50;;;;;;5049148;28;20585;-84
2021/03/10 08:35:56;;;;;;;31.23;22.73;;;6.60;85.40;;;;;;5040205;28;20208;-84
2021/03/10 08:38:23;;;;;;;34.45;22.45;;;6.30;84.30;;;;;;5030886;28;20204;-84
2021/03/10 08:40:50;;;;;;;30.73;22.00;;;6.40;84.90;;;;;;5048996;28;20219;-84
2021/03/10 08:43:21;;;;;;;33.83;24.15;;;6.20;84.70;;;;;;5041030;28;20203;-84
2021/03/10 08:45:48;;;;;;;31.73;23.13;;;6.20;84.70;;;;;;5030862;28;20204;-85
2021/03/10 08:48:15;;;;;;;35.53;23.50;;;6.50;85.10;;;;;;5031473;28;20239;-84
2021/03/10 08:50:42;;;;;;;35.30;22.90;;;6.40;84.50;;;;;;5039452;28;20672;-85
2021/03/10 08:53:13;;;;;;;29.70;21.63;;;6.30;85.20;;;;;;5047381;28;20203;-85
2021/03/10 08:55:40;;;;;;;34.00;23.33;;;6.40;85.90;;;;;;5050327;28;20242;-85
2021/03/10 08:58:12;;;;;;;36.22;23.45;;;6.80;85.50;;;;;;5039916;28;20201;-85
2021/03/10 09:00:39;;;;;;;35.63;24.25;;;6.90;84.10;;;;;;5033498;28;20230;-84
2021/03/10 09:03:10;;;;;;;32.15;23.35;;;7.00;83.70;;;;;;5029673;28;20236;-84
2021/03/10 09:05:37;;;;;;;34.35;23.08;;;6.90;83.50;;;;;;5047813;28;20196;-86
2021/03/10 09:08:06;;;;;;;32.70;21.80;;;7.20;83.40;;;;;;5041898;28;20760;-84
2021/03/10 09:10:34;;;;;;;30.52;21.65;;;7.30;82.40;;;;;;5032895;28;20207;-84
2021/03/10 09:13:01;;;;;;;36.13;23.20;;;7.40;82.90;;;;;;5049616;28;20695;-85
2021/03/10 09:15:30;;;;;;;33.97;21.63;;;7.30;80.90;;;;;;5035300;28;20208;-84
2021/03/10 09:18:00;;;;;;;26.98;18.50;;;7.30;81.20;;;;;;5040696;28;20196;-84
2021/03/10 09:20:29;;;;;;;29.95;21.75;;;7.10;81.20;;;;;;5047465;28;20232;-84
2021/03/10 09:22:57;;;;;;;32.15;21.00;;;6.90;81.50;;;;;;5029624;28;20216;-84
2021/03/10 09:25:25;;;;;;;27.58;19.33;;;7.00;82.60;;;;;;5045697;28;20223;-84
2021/03/10 09:28:06;;;;;;;32.53;21.17;;;7.30;81.50;;;;;;5057392;28;20201;-85
2021/03/10 09:30:34;;;;;;;29.05;19.40;;;7.40;80.50;;;;;;5053484;28;20210;-85
2021/03/10 09:33:01;;;;;;;31.42;19.33;;;7.40;80.50;;;;;;5051482;28;20279;-85
2021/03/10 09:35:33;;;;;;;31.40;20.30;;;7.40;79.30;;;;;;5048519;28;20252;-85
2021/03/10 09:38:01;;;;;;;27.67;20.23;;;7.50;79.10;;;;;;5033347;28;20291;-85
2021/03/10 09:40:37;;;;;;;28.13;21.10;;;7.30;78.60;;;;;;5048865;28;20237;-84
2021/03/10 09:43:06;;;;;;;27.90;20.63;;;7.40;79.30;;;;;;5040097;28;20208;-85
2021/03/10 09:45:35;;;;;;;28.25;19.73;;;7.50;79.60;;;;;;5033859;28;20597;-84
2021/03/10 09:48:04;;;;;;;29.23;20.85;;;7.40;77.50;;;;;;5033061;28;20224;-85
2021/03/10 09:50:33;;;;;;;47.10;30.52;;;7.60;77.80;;;;;;5046995;28;20644;-85
2021/03/10 09:53:10;;;;;;;33.63;25.80;;;8.00;77.90;;;;;;5047899;28;20204;-85
2021/03/10 09:55:37;;;;;;;27.48;18.85;;;8.30;76.50;;;;;;5048212;28;20203;-85
2021/03/10 09:58:06;;;;;;;27.13;18.38;;;8.60;74.50;;;;;;5036901;28;20641;-85
2021/03/10 10:00:33;;;;;;;23.55;17.40;;;8.90;70.80;;;;;;5042653;28;20200;-85
2021/03/10 10:03:00;;;;;;;20.67;16.38;;;8.60;70.60;;;;;;5052432;28;20204;-85
2021/03/10 10:05:29;;;;;;;26.73;16.10;;;8.30;69.30;;;;;;5048938;28;20196;-84
2021/03/10 10:07:57;;;;;;;21.55;16.65;;;8.50;70.00;;;;;;5053030;28;20228;-85
2021/03/10 10:10:24;;;;;;;19.73;14.25;;;8.40;67.90;;;;;;5041059;28;20596;-84
2021/03/10 10:12:52;;;;;;;18.42;13.98;;;8.10;67.90;;;;;;5032768;28;20221;-85
2021/03/10 10:15:23;;;;;;;20.23;13.80;;;7.90;69.60;;;;;;5042582;28;20192;-85
2021/03/10 10:17:51;;;;;;;19.90;14.48;;;7.90;67.90;;;;;;5048196;28;20192;-85
2021/03/10 10:20:20;;;;;;;19.05;13.10;;;7.60;67.80;;;;;;5032883;28;20207;-85
2021/03/10 10:22:47;;;;;;;20.77;15.00;;;7.70;68.00;;;;;;5034764;28;20265;-85
2021/03/10 10:25:16;;;;;;;19.35;15.95;;;8.00;68.10;;;;;;5052367;28;20208;-84
2021/03/10 10:27:43;;;;;;;20.25;14.00;;;8.40;68.10;;;;;;5055780;28;20211;-85
2021/03/10 10:30:13;;;;;;;21.85;12.88;;;8.10;66.70;;;;;;5052361;28;20670;-85
2021/03/10 10:32:41;;;;;;;25.20;18.48;;;8.10;68.10;;;;;;5041124;28;20236;-85
2021/03/10 10:35:09;;;;;;;22.80;15.80;;;7.90;67.60;;;;;;5032028;28;21097;-85
2021/03/10 10:37:35;;;;;;;21.45;14.13;;;7.70;69.40;;;;;;5041295;28;20650;-85
2021/03/10 10:40:02;;;;;;;19.45;13.75;;;7.80;69.60;;;;;;5050440;28;20208;-85
2021/03/10 10:42:29;;;;;;;22.63;15.95;;;7.90;70.20;;;;;;5044051;28;20201;-84
2021/03/10 10:44:55;;;;;;;22.80;14.80;;;8.00;69.40;;;;;;5031936;28;20650;-84
2021/03/10 10:47:22;;;;;;;17.88;12.25;;;7.80;69.40;;;;;;5038431;28;20216;-85
2021/03/10 10:49:50;;;;;;;15.57;12.43;;;8.20;70.10;;;;;;5051952;28;20294;-85
2021/03/10 10:52:16;;;;;;;15.68;10.05;;;8.40;67.80;;;;;;5050654;28;20192;-85
2021/03/10 10:54:43;;;;;;;16.13;11.90;;;8.40;65.40;;;;;;5051535;28;20200;-85
2021/03/10 10:57:09;;;;;;;15.63;11.40;;;8.50;65.50;;;;;;5043872;28;20212;-85
2021/03/10 10:59:36;;;;;;;11.25;8.23;;;8.70;64.40;;;;;;5031733;28;20760;-85
2021/03/10 11:02:02;;;;;;;7.18;5.93;;;8.60;60.00;;;;;;5032010;28;20208;-85
2021/03/10 11:04:29;;;;;;;6.78;5.32;;;8.70;59.10;;;;;;5041507;28;20254;-84
2021/03/10 11:06:56;;;;;;;5.82;4.43;;;8.90;58.40;;;;;;5045074;28;20217;-85
2021/03/10 11:09:23;;;;;;;7.30;4.40;;;8.80;57.00;;;;;;5044275;28;20603;-84
2021/03/10 11:11:52;;;;;;;5.78;4.93;;;8.70;57.80;;;;;;5036129;28;20192;-84
2021/03/10 11:14:18;;;;;;;4.88;3.85;;;8.60;57.10;;;;;;5063672;28;20551;-84
2021/03/10 11:16:45;;;;;;;5.43;4.18;;;8.50;56.30;;;;;;5070482;28;20199;-84
2021/03/10 11:19:12;;;;;;;7.43;5.20;;;8.60;56.40;;;;;;5052300;28;20207;-85
2021/03/10 11:21:39;;;;;;;6.82;5.60;;;8.70;56.80;;;;;;5051799;28;20203;-86
2021/03/10 11:24:08;;;;;;;5.75;4.60;;;8.80;57.60;;;;;;5046915;28;20343;-84
2021/03/10 11:26:34;;;;;;;9.35;5.43;;;8.90;57.30;;;;;;5031088;28;20228;-85
2021/03/10 11:29:01;;;;;;;5.43;4.40;;;9.00;56.70;;;;;;5060522;28;20200;-84
2021/03/10 11:31:28;;;;;;;5.63;4.85;;;9.10;56.40;;;;;;5051001;28;20219;-85
2021/03/10 11:33:54;;;;;;;5.38;4.65;;;9.10;56.70;;;;;;5049300;28;20222;-85
2021/03/10 11:36:21;;;;;;;5.82;4.97;;;9.20;56.20;;;;;;5051153;28;20199;-85
2021/03/10 11:38:48;;;;;;;7.50;5.25;;;9.00;56.30;;;;;;5038555;28;20615;-85
2021/03/10 11:41:16;;;;;;;5.85;4.90;;;9.20;56.50;;;;;;5050831;28;20219;-85
2021/03/10 11:43:42;;;;;;;5.07;4.57;;;9.40;56.20;;;;;;5039656;28;20200;-85
2021/03/10 11:46:09;;;;;;;5.88;4.38;;;9.30;55.30;;;;;;5051122;28;20212;-85
2021/03/10 11:48:35;;;;;;;5.07;3.90;;;9.30;54.80;;;;;;5039582;28;20220;-85
2021/03/10 11:51:01;;;;;;;5.30;4.13;;;9.40;54.60;;;;;;5041784;28;21022;-84
2021/03/10 11:53:28;;;;;;;4.63;3.97;;;9.00;53.40;;;;;;5030587;28;20619;-85
2021/03/10 11:55:54;;;;;;;6.10;4.68;;;8.80;54.80;;;;;;5033097;28;20744;-85
2021/03/10 11:58:24;;;;;;;5.63;4.07;;;8.90;55.40;;;;;;5032050;28;20242;-85
2021/03/10 12:00:50;;;;;;;6.35;3.92;;;8.80;54.30;;;;;;5044886;28;20196;-85
2021/03/10 12:03:17;;;;;;;5.25;4.18;;;8.90;54.40;;;;;;5031569;28;20204;-85
2021/03/10 12:05:43;;;;;;;5.95;4.43;;;8.90;53.90;;;;;;5050646;28;20673;-85
2021/03/10 12:08:10;;;;;;;4.40;3.75;;;8.90;53.80;;;;;;5041631;28;20215;-85
2021/03/10 12:10:40;;;;;;;4.57;3.95;;;9.00;54.00;;;;;;5033269;28;20216;-85
2021/03/10 12:13:06;;;;;;;4.30;3.33;;;9.00;53.50;;;;;;5050405;28;20265;-85
2021/03/10 12:15:34;;;;;;;6.18;4.60;;;9.10;53.90;;;;;;5030860;28;20204;-85
2021/03/10 12:18:01;;;;;;;7.32;5.70;;;9.20;54.50;;;;;;5040189;28;20211;-85
2021/03/10 12:20:27;;;;;;;6.77;4.83;;;9.20;54.00;;;;;;5031403;28;20193;-85
2021/03/10 12:22:54;;;;;;;5.80;4.85;;;9.30;53.80;;;;;;5037644;28;20626;-85
2021/03/10 12:25:21;;;;;;;6.03;4.40;;;9.40;54.10;;;;;;5030851;28;20205;-85
2021/03/10 12:27:47;;;;;;;8.43;5.05;;;9.90;54.40;;;;;;5037226;28;20723;-86
2021/03/10 12:30:15;;;;;;;4.80;4.20;;;9.90;52.80;;;;;;5037109;28;20215;-85
2021/03/10 12:32:42;;;;;;;5.77;4.70;;;9.90;53.70;;;;;;5034005;28;21198;-85
2021/03/10 12:35:10;;;;;;;6.10;4.10;;;10.40;53.60;;;;;;5033118;28;20646;-86
2021/03/10 12:37:37;;;;;;;6.93;5.50;;;10.50;51.60;;;;;;5034011;28;20629;-85
2021/03/10 12:40:04;;;;;;;6.90;4.67;;;10.20;50.00;;;;;;5036444;28;21212;-85
2021/03/10 12:42:31;;;;;;;8.67;4.37;;;10.00;51.10;;;;;;5032463;28;20675;-85
2021/03/10 12:44:58;;;;;;;6.73;4.93;;;10.30;51.70;;;;;;5035807;28;20623;-85